sensor_id;sensor_type;location;lat;lon;timestamp;temperature;humidity
6421;DHT22;3243;50.958;7.012;2023-04-03T00:00:36;3.50;99.90
6421;DHT22;3243;50.958;7.012;2023-04-03T00:05:31;3.50;99.90
6421;DHT22;3243;50.958;7.012;2023-04-03T00:07:57;3.50;99.90
6421;DHT22;3243;50.958;7.012;2023-04-03T00:15:18;3.30;99.90
6421;DHT22;3243;50.958;7.012;2023-04-03T00:20:12;3.30;99.90
6421;DHT22;3243;50.958;7.012;2023-04-03T00:27:37;3.10;99.90
6421;DHT22;3243;50.958;7.012;2023-04-03T00:30:05;3.10;99.90
6421;DHT22;3243;50.958;7.012;2023-04-03T00:32:33;3.00;99.90
6421;DHT22;3243;50.958;7.012;2023-04-03T00:37:27;2.90;99.90
6421;DHT22;3243;50.958;7.012;2023-04-03T00:39:53;2.80;99.90
6421;DHT22;3243;50.958;7.012;2023-04-03T00:47:16;2.60;99.90
6421;DHT22;3243;50.958;7.012;2023-04-03T00:49:44;2.60;99.90
6421;DHT22;3243;50.958;7.012;2023-04-03T00:52:16;2.50;99.90
6421;DHT22;3243;50.958;7.012;2023-04-03T00:54:45;2.40;99.90
6421;DHT22;3243;50.958;7.012;2023-04-03T00:57:14;2.60;99.90
6421;DHT22;3243;50.958;7.012;2023-04-03T00:59:48;2.60;99.90
6421;DHT22;3243;50.958;7.012;2023-04-03T01:07:26;2.60;99.90
6421;DHT22;3243;50.958;7.012;2023-04-03T01:09:57;2.50;99.90
6421;DHT22;3243;50.958;7.012;2023-04-03T01:12:30;2.50;99.90
6421;DHT22;3243;50.958;7.012;2023-04-03T01:15:10;2.50;99.90
6421;DHT22;3243;50.958;7.012;2023-04-03T01:28:33;2.40;99.90
6421;DHT22;3243;50.958;7.012;2023-04-03T01:36:24;2.50;99.90
6421;DHT22;3243;50.958;7.012;2023-04-03T01:38:53;2.40;99.90
6421;DHT22;3243;50.958;7.012;2023-04-03T01:41:20;2.50;99.90
6421;DHT22;3243;50.958;7.012;2023-04-03T01:43:48;2.50;99.90
6421;DHT22;3243;50.958;7.012;2023-04-03T01:46:16;2.50;99.90
6421;DHT22;3243;50.958;7.012;2023-04-03T01:53:37;2.30;99.90
6421;DHT22;3243;50.958;7.012;2023-04-03T02:10:48;2.10;99.90
6421;DHT22;3243;50.958;7.012;2023-04-03T02:13:15;2.10;99.90
6421;DHT22;3243;50.958;7.012;2023-04-03T02:15:42;2.10;99.90
6421;DHT22;3243;50.958;7.012;2023-04-03T02:23:04;2.00;99.90
6421;DHT22;3243;50.958;7.012;2023-04-03T02:25:32;2.10;99.90
6421;DHT22;3243;50.958;7.012;2023-04-03T02:27:59;2.00;99.90
6421;DHT22;3243;50.958;7.012;2023-04-03T02:30:26;2.00;99.90
6421;DHT22;3243;50.958;7.012;2023-04-03T02:35:20;1.90;99.90
6421;DHT22;3243;50.958;7.012;2023-04-03T02:45:09;1.90;99.90
6421;DHT22;3243;50.958;7.012;2023-04-03T02:47:35;1.90;99.90
6421;DHT22;3243;50.958;7.012;2023-04-03T03:09:39;1.80;99.90
6421;DHT22;3243;50.958;7.012;2023-04-03T03:14:33;1.80;99.90
6421;DHT22;3243;50.958;7.012;2023-04-03T03:17:00;1.80;99.90
6421;DHT22;3243;50.958;7.012;2023-04-03T03:24:21;1.70;99.90
6421;DHT22;3243;50.958;7.012;2023-04-03T03:36:36;1.70;99.90
6421;DHT22;3243;50.958;7.012;2023-04-03T03:39:03;1.70;99.90
6421;DHT22;3243;50.958;7.012;2023-04-03T03:43:57;1.70;99.90
6421;DHT22;3243;50.958;7.012;2023-04-03T03:48:51;1.70;99.90
6421;DHT22;3243;50.958;7.012;2023-04-03T04:01:07;1.80;99.90
6421;DHT22;3243;50.958;7.012;2023-04-03T04:03:34;1.70;99.90
6421;DHT22;3243;50.958;7.012;2023-04-03T04:06:01;1.70;99.90
6421;DHT22;3243;50.958;7.012;2023-04-03T04:10:55;1.70;99.90
6421;DHT22;3243;50.958;7.012;2023-04-03T04:18:16;1.80;99.90
6421;DHT22;3243;50.958;7.012;2023-04-03T04:20:45;1.80;99.90
6421;DHT22;3243;50.958;7.012;2023-04-03T04:23:12;1.80;99.90
6421;DHT22;3243;50.958;7.012;2023-04-03T04:28:06;1.80;99.90
6421;DHT22;3243;50.958;7.012;2023-04-03T04:37:55;1.80;99.90
6421;DHT22;3243;50.958;7.012;2023-04-03T04:42:49;1.80;99.90
6421;DHT22;3243;50.958;7.012;2023-04-03T04:52:38;1.80;99.90
6421;DHT22;3243;50.958;7.012;2023-04-03T04:55:05;1.80;99.90
6421;DHT22;3243;50.958;7.012;2023-04-03T04:57:32;1.80;99.90
6421;DHT22;3243;50.958;7.012;2023-04-03T05:02:26;1.80;99.90
6421;DHT22;3243;50.958;7.012;2023-04-03T05:07:20;1.70;99.90
6421;DHT22;3243;50.958;7.012;2023-04-03T05:12:14;1.70;99.90
6421;DHT22;3243;50.958;7.012;2023-04-03T05:17:08;1.70;99.90
6421;DHT22;3243;50.958;7.012;2023-04-03T05:22:02;1.80;99.90
6421;DHT22;3243;50.958;7.012;2023-04-03T05:24:29;1.80;99.90
6421;DHT22;3243;50.958;7.012;2023-04-03T05:29:23;1.80;99.90
6421;DHT22;3243;50.958;7.012;2023-04-03T05:31:50;1.90;99.90
6421;DHT22;3243;50.958;7.012;2023-04-03T05:34:17;2.00;99.90
6421;DHT22;3243;50.958;7.012;2023-04-03T05:36:44;2.00;99.90
6421;DHT22;3243;50.958;7.012;2023-04-03T05:39:11;1.90;99.90
6421;DHT22;3243;50.958;7.012;2023-04-03T05:41:38;2.00;99.90
6421;DHT22;3243;50.958;7.012;2023-04-03T05:44:04;2.00;99.90
6421;DHT22;3243;50.958;7.012;2023-04-03T05:46:32;2.00;99.90
6421;DHT22;3243;50.958;7.012;2023-04-03T05:48:59;2.10;99.90
6421;DHT22;3243;50.958;7.012;2023-04-03T05:51:32;2.10;99.90
6421;DHT22;3243;50.958;7.012;2023-04-03T05:54:08;2.10;99.90
6421;DHT22;3243;50.958;7.012;2023-04-03T05:56:36;2.20;99.90
6421;DHT22;3243;50.958;7.012;2023-04-03T05:59:03;2.20;99.90
6421;DHT22;3243;50.958;7.012;2023-04-03T06:01:29;2.20;99.90
6421;DHT22;3243;50.958;7.012;2023-04-03T06:03:56;2.20;99.90
6421;DHT22;3243;50.958;7.012;2023-04-03T06:06:25;2.30;99.90
6421;DHT22;3243;50.958;7.012;2023-04-03T06:08:52;2.20;99.90
6421;DHT22;3243;50.958;7.012;2023-04-03T06:11:19;2.30;99.90
6421;DHT22;3243;50.958;7.012;2023-04-03T06:13:48;2.30;99.90
6421;DHT22;3243;50.958;7.012;2023-04-03T06:16:15;2.40;99.90
6421;DHT22;3243;50.958;7.012;2023-04-03T06:18:43;2.50;99.90
6421;DHT22;3243;50.958;7.012;2023-04-03T06:21:10;2.60;99.90
6421;DHT22;3243;50.958;7.012;2023-04-03T06:23:37;2.60;99.90
6421;DHT22;3243;50.958;7.012;2023-04-03T06:26:03;2.70;99.90
6421;DHT22;3243;50.958;7.012;2023-04-03T06:28:31;2.80;99.90
6421;DHT22;3243;50.958;7.012;2023-04-03T06:30:58;2.80;99.90
6421;DHT22;3243;50.958;7.012;2023-04-03T06:33:25;2.90;99.90
6421;DHT22;3243;50.958;7.012;2023-04-03T06:35:59;2.90;99.90
6421;DHT22;3243;50.958;7.012;2023-04-03T06:38:26;3.00;99.90
6421;DHT22;3243;50.958;7.012;2023-04-03T06:40:53;3.10;99.90
6421;DHT22;3243;50.958;7.012;2023-04-03T06:43:20;3.20;99.90
6421;DHT22;3243;50.958;7.012;2023-04-03T06:45:49;3.30;99.90
6421;DHT22;3243;50.958;7.012;2023-04-03T06:48:17;3.40;99.90
6421;DHT22;3243;50.958;7.012;2023-04-03T06:50:44;3.40;99.90
6421;DHT22;3243;50.958;7.012;2023-04-03T06:53:10;3.50;99.90
6421;DHT22;3243;50.958;7.012;2023-04-03T06:55:38;3.60;99.90
6421;DHT22;3243;50.958;7.012;2023-04-03T06:58:05;3.70;99.90
6421;DHT22;3243;50.958;7.012;2023-04-03T07:00:32;3.90;99.90
6421;DHT22;3243;50.958;7.012;2023-04-03T07:02:59;3.90;99.90
6421;DHT22;3243;50.958;7.012;2023-04-03T07:05:26;4.00;99.90
6421;DHT22;3243;50.958;7.012;2023-04-03T07:07:53;4.10;99.90
6421;DHT22;3243;50.958;7.012;2023-04-03T07:10:20;4.20;99.90
6421;DHT22;3243;50.958;7.012;2023-04-03T07:12:47;4.30;99.90
6421;DHT22;3243;50.958;7.012;2023-04-03T07:15:14;4.30;99.90
6421;DHT22;3243;50.958;7.012;2023-04-03T07:17:41;3.70;99.90
6421;DHT22;3243;50.958;7.012;2023-04-03T07:20:08;4.50;99.90
6421;DHT22;3243;50.958;7.012;2023-04-03T07:22:35;4.50;99.90
6421;DHT22;3243;50.958;7.012;2023-04-03T07:25:02;4.60;99.90
6421;DHT22;3243;50.958;7.012;2023-04-03T07:27:29;4.70;99.90
6421;DHT22;3243;50.958;7.012;2023-04-03T07:29:56;4.80;99.90
6421;DHT22;3243;50.958;7.012;2023-04-03T07:32:22;4.80;99.90
6421;DHT22;3243;50.958;7.012;2023-04-03T07:34:49;4.70;99.90
6421;DHT22;3243;50.958;7.012;2023-04-03T07:37:16;4.80;99.90
6421;DHT22;3243;50.958;7.012;2023-04-03T07:39:44;4.90;99.90
6421;DHT22;3243;50.958;7.012;2023-04-03T07:42:11;5.00;99.90
6421;DHT22;3243;50.958;7.012;2023-04-03T07:44:38;5.00;99.90
6421;DHT22;3243;50.958;7.012;2023-04-03T07:47:05;5.10;99.90
6421;DHT22;3243;50.958;7.012;2023-04-03T07:49:32;5.20;99.90
6421;DHT22;3243;50.958;7.012;2023-04-03T07:51:59;5.30;99.90
6421;DHT22;3243;50.958;7.012;2023-04-03T07:54:26;5.30;99.90
6421;DHT22;3243;50.958;7.012;2023-04-03T07:56:52;5.30;99.90
6421;DHT22;3243;50.958;7.012;2023-04-03T07:59:19;5.40;99.90
6421;DHT22;3243;50.958;7.012;2023-04-03T08:01:46;5.40;99.90
6421;DHT22;3243;50.958;7.012;2023-04-03T08:04:13;5.40;99.90
6421;DHT22;3243;50.958;7.012;2023-04-03T08:06:40;5.40;99.90
6421;DHT22;3243;50.958;7.012;2023-04-03T08:09:16;5.40;99.90
6421;DHT22;3243;50.958;7.012;2023-04-03T08:11:43;5.40;99.90
6421;DHT22;3243;50.958;7.012;2023-04-03T08:14:11;5.60;99.90
6421;DHT22;3243;50.958;7.012;2023-04-03T08:16:44;5.70;99.90
6421;DHT22;3243;50.958;7.012;2023-04-03T08:19:12;5.90;99.90
6421;DHT22;3243;50.958;7.012;2023-04-03T08:21:51;5.90;99.90
6421;DHT22;3243;50.958;7.012;2023-04-03T08:24:18;6.00;99.90
6421;DHT22;3243;50.958;7.012;2023-04-03T08:26:44;5.90;99.90
6421;DHT22;3243;50.958;7.012;2023-04-03T08:29:11;6.00;99.90
6421;DHT22;3243;50.958;7.012;2023-04-03T08:31:38;6.10;99.90
6421;DHT22;3243;50.958;7.012;2023-04-03T08:34:05;6.10;99.90
6421;DHT22;3243;50.958;7.012;2023-04-03T08:36:32;6.30;99.90
6421;DHT22;3243;50.958;7.012;2023-04-03T08:38:59;6.30;99.90
6421;DHT22;3243;50.958;7.012;2023-04-03T08:41:38;6.40;99.90
6421;DHT22;3243;50.958;7.012;2023-04-03T08:44:24;6.50;99.90
6421;DHT22;3243;50.958;7.012;2023-04-03T08:47:23;6.50;99.90
6421;DHT22;3243;50.958;7.012;2023-04-03T08:50:00;6.50;99.90
6421;DHT22;3243;50.958;7.012;2023-04-03T08:54:57;6.70;99.90
6421;DHT22;3243;50.958;7.012;2023-04-03T08:57:44;6.70;99.90
6421;DHT22;3243;50.958;7.012;2023-04-03T09:00:23;6.90;99.90
6421;DHT22;3243;50.958;7.012;2023-04-03T09:02:53;7.00;99.90
6421;DHT22;3243;50.958;7.012;2023-04-03T09:08:27;7.10;99.90
6421;DHT22;3243;50.958;7.012;2023-04-03T09:11:24;7.20;99.90
6421;DHT22;3243;50.958;7.012;2023-04-03T09:19:22;7.30;99.90
6421;DHT22;3243;50.958;7.012;2023-04-03T09:21:50;7.20;99.90
6421;DHT22;3243;50.958;7.012;2023-04-03T09:24:17;7.20;99.90
6421;DHT22;3243;50.958;7.012;2023-04-03T09:26:46;7.30;99.90
6421;DHT22;3243;50.958;7.012;2023-04-03T09:29:19;7.30;99.90
6421;DHT22;3243;50.958;7.012;2023-04-03T09:31:49;7.20;99.90
6421;DHT22;3243;50.958;7.012;2023-04-03T09:34:31;7.30;99.90
6421;DHT22;3243;50.958;7.012;2023-04-03T09:37:00;7.40;99.90
6421;DHT22;3243;50.958;7.012;2023-04-03T09:39:49;7.40;99.90
6421;DHT22;3243;50.958;7.012;2023-04-03T09:42:20;7.40;99.90
6421;DHT22;3243;50.958;7.012;2023-04-03T09:44:54;7.40;99.90
6421;DHT22;3243;50.958;7.012;2023-04-03T09:47:34;7.50;99.90
6421;DHT22;3243;50.958;7.012;2023-04-03T09:52:47;7.80;1.00
6421;DHT22;3243;50.958;7.012;2023-04-03T09:55:17;8.00;1.00
6421;DHT22;3243;50.958;7.012;2023-04-03T09:57:48;8.00;1.00
6421;DHT22;3243;50.958;7.012;2023-04-03T10:00:30;8.20;1.00
6421;DHT22;3243;50.958;7.012;2023-04-03T10:02:59;8.20;1.00
6421;DHT22;3243;50.958;7.012;2023-04-03T10:05:40;8.10;1.00
6421;DHT22;3243;50.958;7.012;2023-04-03T10:10:41;8.10;1.00
6421;DHT22;3243;50.958;7.012;2023-04-03T10:16:12;8.30;1.00
6421;DHT22;3243;50.958;7.012;2023-04-03T10:18:49;8.30;99.90
6421;DHT22;3243;50.958;7.012;2023-04-03T10:21:48;8.50;99.90
6421;DHT22;3243;50.958;7.012;2023-04-03T10:24:39;8.50;99.90
6421;DHT22;3243;50.958;7.012;2023-04-03T10:27:32;8.60;99.90
6421;DHT22;3243;50.958;7.012;2023-04-03T10:32:47;8.70;99.90
6421;DHT22;3243;50.958;7.012;2023-04-03T10:40:59;8.90;99.90
6421;DHT22;3243;50.958;7.012;2023-04-03T10:43:39;9.10;99.90
6421;DHT22;3243;50.958;7.012;2023-04-03T10:46:11;9.10;99.90
6421;DHT22;3243;50.958;7.012;2023-04-03T10:49:19;9.00;99.90
6421;DHT22;3243;50.958;7.012;2023-04-03T10:51:48;9.00;99.90
6421;DHT22;3243;50.958;7.012;2023-04-03T10:54:24;8.80;99.90
6421;DHT22;3243;50.958;7.012;2023-04-03T10:57:03;8.60;99.90
6421;DHT22;3243;50.958;7.012;2023-04-03T11:02:32;8.90;99.90
6421;DHT22;3243;50.958;7.012;2023-04-03T11:07:56;9.10;99.90
6421;DHT22;3243;50.958;7.012;2023-04-03T11:10:59;9.10;99.90
6421;DHT22;3243;50.958;7.012;2023-04-03T11:16:06;9.20;99.90
6421;DHT22;3243;50.958;7.012;2023-04-03T11:18:44;9.20;99.90
6421;DHT22;3243;50.958;7.012;2023-04-03T11:21:45;9.20;99.90
6421;DHT22;3243;50.958;7.012;2023-04-03T11:24:22;9.30;99.90
6421;DHT22;3243;50.958;7.012;2023-04-03T11:26:50;9.40;99.90
6421;DHT22;3243;50.958;7.012;2023-04-03T11:29:22;9.50;99.90
6421;DHT22;3243;50.958;7.012;2023-04-03T11:34:38;9.70;1.00
6421;DHT22;3243;50.958;7.012;2023-04-03T11:37:38;9.50;1.00
6421;DHT22;3243;50.958;7.012;2023-04-03T11:40:27;9.50;1.00
6421;DHT22;3243;50.958;7.012;2023-04-03T11:45:31;9.40;1.00
6421;DHT22;3243;50.958;7.012;2023-04-03T11:50:56;9.60;99.90
6421;DHT22;3243;50.958;7.012;2023-04-03T11:53:36;9.70;99.90
6421;DHT22;3243;50.958;7.012;2023-04-03T12:01:56;9.80;99.90
6421;DHT22;3243;50.958;7.012;2023-04-03T12:04:26;9.80;99.90
6421;DHT22;3243;50.958;7.012;2023-04-03T12:07:13;9.80;99.90
6421;DHT22;3243;50.958;7.012;2023-04-03T12:18:41;9.90;99.90
6421;DHT22;3243;50.958;7.012;2023-04-03T12:21:10;9.70;99.90
6421;DHT22;3243;50.958;7.012;2023-04-03T12:40:39;9.70;99.90
6421;DHT22;3243;50.958;7.012;2023-04-03T12:43:20;9.80;99.90
6421;DHT22;3243;50.958;7.012;2023-04-03T12:48:29;9.80;99.90
6421;DHT22;3243;50.958;7.012;2023-04-03T12:50:58;9.90;99.90
6421;DHT22;3243;50.958;7.012;2023-04-03T12:53:27;9.90;99.90
6421;DHT22;3243;50.958;7.012;2023-04-03T12:55:57;10.00;99.90
6421;DHT22;3243;50.958;7.012;2023-04-03T12:58:43;10.00;99.90
6421;DHT22;3243;50.958;7.012;2023-04-03T13:01:13;9.70;99.90
6421;DHT22;3243;50.958;7.012;2023-04-03T13:03:52;9.80;99.90
6421;DHT22;3243;50.958;7.012;2023-04-03T13:06:21;9.80;99.90
6421;DHT22;3243;50.958;7.012;2023-04-03T13:08:53;9.60;99.90
6421;DHT22;3243;50.958;7.012;2023-04-03T13:11:21;9.80;99.90
6421;DHT22;3243;50.958;7.012;2023-04-03T13:14:02;9.80;99.90
6421;DHT22;3243;50.958;7.012;2023-04-03T13:16:32;9.80;99.90
6421;DHT22;3243;50.958;7.012;2023-04-03T13:19:00;10.00;99.90
6421;DHT22;3243;50.958;7.012;2023-04-03T13:21:33;10.00;99.90
6421;DHT22;3243;50.958;7.012;2023-04-03T13:24:01;9.90;99.90
6421;DHT22;3243;50.958;7.012;2023-04-03T13:26:41;9.90;99.90
6421;DHT22;3243;50.958;7.012;2023-04-03T13:29:26;9.90;99.90
6421;DHT22;3243;50.958;7.012;2023-04-03T13:31:58;9.90;99.90
6421;DHT22;3243;50.958;7.012;2023-04-03T13:34:29;9.90;99.90
6421;DHT22;3243;50.958;7.012;2023-04-03T13:37:00;9.90;99.90
6421;DHT22;3243;50.958;7.012;2023-04-03T13:39:32;10.00;99.90
6421;DHT22;3243;50.958;7.012;2023-04-03T13:42:15;10.10;99.90
6421;DHT22;3243;50.958;7.012;2023-04-03T13:44:42;10.10;99.90
6421;DHT22;3243;50.958;7.012;2023-04-03T13:50:03;10.10;99.90
6421;DHT22;3243;50.958;7.012;2023-04-03T14:00:27;10.30;99.90
6421;DHT22;3243;50.958;7.012;2023-04-03T14:02:55;10.30;99.90
6421;DHT22;3243;50.958;7.012;2023-04-03T14:05:23;10.20;99.90
6421;DHT22;3243;50.958;7.012;2023-04-03T14:07:53;10.20;99.90
6421;DHT22;3243;50.958;7.012;2023-04-03T14:10:20;10.30;99.90
6421;DHT22;3243;50.958;7.012;2023-04-03T14:12:47;10.50;99.90
6421;DHT22;3243;50.958;7.012;2023-04-03T14:15:17;10.60;99.90
6421;DHT22;3243;50.958;7.012;2023-04-03T14:17:44;10.60;99.90
6421;DHT22;3243;50.958;7.012;2023-04-03T14:20:16;10.60;99.90
6421;DHT22;3243;50.958;7.012;2023-04-03T14:22:43;10.60;99.90
6421;DHT22;3243;50.958;7.012;2023-04-03T14:25:10;10.70;99.90
6421;DHT22;3243;50.958;7.012;2023-04-03T14:27:42;10.70;99.90
6421;DHT22;3243;50.958;7.012;2023-04-03T14:30:19;10.60;99.90
6421;DHT22;3243;50.958;7.012;2023-04-03T14:32:47;10.50;99.90
6421;DHT22;3243;50.958;7.012;2023-04-03T14:35:15;10.40;99.90
6421;DHT22;3243;50.958;7.012;2023-04-03T14:37:42;10.50;99.90
6421;DHT22;3243;50.958;7.012;2023-04-03T14:40:18;10.30;99.90
6421;DHT22;3243;50.958;7.012;2023-04-03T14:42:46;10.50;99.90
6421;DHT22;3243;50.958;7.012;2023-04-03T14:45:15;10.10;99.90
6421;DHT22;3243;50.958;7.012;2023-04-03T14:47:46;10.10;99.90
6421;DHT22;3243;50.958;7.012;2023-04-03T14:50:20;10.20;99.90
6421;DHT22;3243;50.958;7.012;2023-04-03T14:52:49;10.20;99.90
6421;DHT22;3243;50.958;7.012;2023-04-03T14:55:18;10.30;99.90
6421;DHT22;3243;50.958;7.012;2023-04-03T14:57:45;10.20;99.90
6421;DHT22;3243;50.958;7.012;2023-04-03T15:00:17;10.20;99.90
6421;DHT22;3243;50.958;7.012;2023-04-03T15:02:44;10.20;99.90
6421;DHT22;3243;50.958;7.012;2023-04-03T15:05:13;10.30;99.90
6421;DHT22;3243;50.958;7.012;2023-04-03T15:07:54;10.40;99.90
6421;DHT22;3243;50.958;7.012;2023-04-03T15:10:23;10.40;99.90
6421;DHT22;3243;50.958;7.012;2023-04-03T15:12:51;10.40;99.90
6421;DHT22;3243;50.958;7.012;2023-04-03T15:15:20;10.40;99.90
6421;DHT22;3243;50.958;7.012;2023-04-03T15:17:52;10.40;99.90
6421;DHT22;3243;50.958;7.012;2023-04-03T15:20:25;10.30;99.90
6421;DHT22;3243;50.958;7.012;2023-04-03T15:22:53;10.30;99.90
6421;DHT22;3243;50.958;7.012;2023-04-03T15:25:19;10.30;99.90
6421;DHT22;3243;50.958;7.012;2023-04-03T15:27:46;10.30;99.90
6421;DHT22;3243;50.958;7.012;2023-04-03T15:30:16;10.30;99.90
6421;DHT22;3243;50.958;7.012;2023-04-03T15:32:43;10.30;99.90
6421;DHT22;3243;50.958;7.012;2023-04-03T15:35:10;10.30;99.90
6421;DHT22;3243;50.958;7.012;2023-04-03T15:37:37;10.20;99.90
6421;DHT22;3243;50.958;7.012;2023-04-03T15:40:05;10.20;99.90
6421;DHT22;3243;50.958;7.012;2023-04-03T15:42:32;10.20;99.90
6421;DHT22;3243;50.958;7.012;2023-04-03T15:44:59;10.20;99.90
6421;DHT22;3243;50.958;7.012;2023-04-03T15:47:26;10.10;99.90
6421;DHT22;3243;50.958;7.012;2023-04-03T15:49:54;10.10;99.90
6421;DHT22;3243;50.958;7.012;2023-04-03T15:52:21;10.00;99.90
6421;DHT22;3243;50.958;7.012;2023-04-03T15:54:48;10.00;99.90
6421;DHT22;3243;50.958;7.012;2023-04-03T15:57:15;10.10;99.90
6421;DHT22;3243;50.958;7.012;2023-04-03T15:59:42;10.20;99.90
6421;DHT22;3243;50.958;7.012;2023-04-03T16:02:10;10.00;99.90
6421;DHT22;3243;50.958;7.012;2023-04-03T16:04:39;10.10;99.90
6421;DHT22;3243;50.958;7.012;2023-04-03T16:07:06;10.10;99.90
6421;DHT22;3243;50.958;7.012;2023-04-03T16:09:33;10.00;99.90
6421;DHT22;3243;50.958;7.012;2023-04-03T16:12:00;9.90;99.90
6421;DHT22;3243;50.958;7.012;2023-04-03T16:14:28;10.00;99.90
6421;DHT22;3243;50.958;7.012;2023-04-03T16:16:58;10.00;99.90
6421;DHT22;3243;50.958;7.012;2023-04-03T16:19:27;10.00;99.90
6421;DHT22;3243;50.958;7.012;2023-04-03T16:21:55;10.00;99.90
6421;DHT22;3243;50.958;7.012;2023-04-03T16:24:22;10.00;99.90
6421;DHT22;3243;50.958;7.012;2023-04-03T16:26:49;10.00;99.90
6421;DHT22;3243;50.958;7.012;2023-04-03T16:29:15;9.80;99.90
6421;DHT22;3243;50.958;7.012;2023-04-03T16:31:42;9.80;99.90
6421;DHT22;3243;50.958;7.012;2023-04-03T16:34:09;9.80;99.90
6421;DHT22;3243;50.958;7.012;2023-04-03T16:36:36;9.80;99.90
6421;DHT22;3243;50.958;7.012;2023-04-03T16:39:04;9.60;99.90
6421;DHT22;3243;50.958;7.012;2023-04-03T16:41:31;9.60;99.90
6421;DHT22;3243;50.958;7.012;2023-04-03T16:43:58;9.50;99.90
6421;DHT22;3243;50.958;7.012;2023-04-03T16:46:25;9.40;99.90
6421;DHT22;3243;50.958;7.012;2023-04-03T16:48:52;9.40;99.90
6421;DHT22;3243;50.958;7.012;2023-04-03T16:51:19;9.30;99.90
6421;DHT22;3243;50.958;7.012;2023-04-03T16:53:46;9.20;99.90
6421;DHT22;3243;50.958;7.012;2023-04-03T16:56:12;9.10;99.90
6421;DHT22;3243;50.958;7.012;2023-04-03T16:58:39;9.20;99.90
6421;DHT22;3243;50.958;7.012;2023-04-03T17:01:14;9.00;99.90
6421;DHT22;3243;50.958;7.012;2023-04-03T17:03:41;8.90;99.90
6421;DHT22;3243;50.958;7.012;2023-04-03T17:06:11;9.00;99.90
6421;DHT22;3243;50.958;7.012;2023-04-03T17:08:43;8.90;99.90
6421;DHT22;3243;50.958;7.012;2023-04-03T17:11:11;8.90;6.10
6421;DHT22;3243;50.958;7.012;2023-04-03T17:13:38;8.90;34.50
6421;DHT22;3243;50.958;7.012;2023-04-03T17:16:07;8.80;1.00
6421;DHT22;3243;50.958;7.012;2023-04-03T17:18:34;8.70;1.00
6421;DHT22;3243;50.958;7.012;2023-04-03T17:21:02;8.70;99.90
6421;DHT22;3243;50.958;7.012;2023-04-03T17:23:29;8.70;99.90
6421;DHT22;3243;50.958;7.012;2023-04-03T17:25:56;8.60;1.00
6421;DHT22;3243;50.958;7.012;2023-04-03T17:28:23;8.50;99.90
6421;DHT22;3243;50.958;7.012;2023-04-03T17:30:59;8.40;97.40
6421;DHT22;3243;50.958;7.012;2023-04-03T17:35:57;8.30;99.90
6421;DHT22;3243;50.958;7.012;2023-04-03T17:40:51;8.20;99.90
6421;DHT22;3243;50.958;7.012;2023-04-03T17:43:18;8.20;99.90
6421;DHT22;3243;50.958;7.012;2023-04-03T17:45:44;8.20;99.90
6421;DHT22;3243;50.958;7.012;2023-04-03T17:58:00;7.90;99.90
6421;DHT22;3243;50.958;7.012;2023-04-03T18:07:48;7.70;80.30
6421;DHT22;3243;50.958;7.012;2023-04-03T18:12:42;7.60;99.20
6421;DHT22;3243;50.958;7.012;2023-04-03T18:20:05;7.40;40.60
6421;DHT22;3243;50.958;7.012;2023-04-03T18:22:32;7.40;99.90
6421;DHT22;3243;50.958;7.012;2023-04-03T18:27:27;7.20;16.70
6421;DHT22;3243;50.958;7.012;2023-04-03T18:29:58;7.10;99.90
6421;DHT22;3243;50.958;7.012;2023-04-03T18:42:19;6.90;99.90
6421;DHT22;3243;50.958;7.012;2023-04-03T18:44:50;6.90;99.90
6421;DHT22;3243;50.958;7.012;2023-04-03T18:47:18;6.90;99.90
6421;DHT22;3243;50.958;7.012;2023-04-03T18:52:13;6.80;99.90
6421;DHT22;3243;50.958;7.012;2023-04-03T18:54:39;6.70;99.90
6421;DHT22;3243;50.958;7.012;2023-04-03T18:57:08;6.70;99.90
6421;DHT22;3243;50.958;7.012;2023-04-03T18:59:35;6.60;99.90
6421;DHT22;3243;50.958;7.012;2023-04-03T19:02:04;6.60;99.90
6421;DHT22;3243;50.958;7.012;2023-04-03T19:04:31;6.60;99.90
6421;DHT22;3243;50.958;7.012;2023-04-03T19:09:29;6.40;53.70
6421;DHT22;3243;50.958;7.012;2023-04-03T19:16:51;6.40;99.90
6421;DHT22;3243;50.958;7.012;2023-04-03T19:21:45;6.30;99.90
6421;DHT22;3243;50.958;7.012;2023-04-03T19:26:40;6.20;99.90
6421;DHT22;3243;50.958;7.012;2023-04-03T19:29:08;6.20;99.90
6421;DHT22;3243;50.958;7.012;2023-04-03T19:31:36;6.10;99.90
6421;DHT22;3243;50.958;7.012;2023-04-03T19:34:04;6.10;99.90
6421;DHT22;3243;50.958;7.012;2023-04-03T19:36:32;6.00;99.90
6421;DHT22;3243;50.958;7.012;2023-04-03T19:38:59;6.00;99.90
6421;DHT22;3243;50.958;7.012;2023-04-03T19:41:28;5.90;99.90
6421;DHT22;3243;50.958;7.012;2023-04-03T19:46:24;5.80;99.90
6421;DHT22;3243;50.958;7.012;2023-04-03T19:56:14;5.70;99.90
6421;DHT22;3243;50.958;7.012;2023-04-03T20:01:11;5.60;99.90
6421;DHT22;3243;50.958;7.012;2023-04-03T20:06:05;5.50;99.90
6421;DHT22;3243;50.958;7.012;2023-04-03T20:20:55;5.20;99.90
6421;DHT22;3243;50.958;7.012;2023-04-03T20:23:23;5.10;99.90
6421;DHT22;3243;50.958;7.012;2023-04-03T20:25:53;5.10;99.90
6421;DHT22;3243;50.958;7.012;2023-04-03T20:28:36;5.10;99.90
6421;DHT22;3243;50.958;7.012;2023-04-03T20:31:05;5.10;99.90
6421;DHT22;3243;50.958;7.012;2023-04-03T20:40:56;5.00;99.90
6421;DHT22;3243;50.958;7.012;2023-04-03T20:45:50;5.00;99.90
6421;DHT22;3243;50.958;7.012;2023-04-03T20:50:45;5.00;99.90
6421;DHT22;3243;50.958;7.012;2023-04-03T20:58:07;4.80;99.90
6421;DHT22;3243;50.958;7.012;2023-04-03T21:03:03;4.80;99.90
6421;DHT22;3243;50.958;7.012;2023-04-03T21:19:42;4.50;99.90
6421;DHT22;3243;50.958;7.012;2023-04-03T21:22:12;4.40;99.90
6421;DHT22;3243;50.958;7.012;2023-04-03T21:24:40;4.30;99.90
6421;DHT22;3243;50.958;7.012;2023-04-03T21:32:02;4.30;99.90
6421;DHT22;3243;50.958;7.012;2023-04-03T21:34:30;4.20;99.90
6421;DHT22;3243;50.958;7.012;2023-04-03T21:37:05;4.20;99.90
6421;DHT22;3243;50.958;7.012;2023-04-03T21:41:59;4.10;99.90
6421;DHT22;3243;50.958;7.012;2023-04-03T21:46:54;4.10;99.90
6421;DHT22;3243;50.958;7.012;2023-04-03T21:49:23;4.00;99.90
6421;DHT22;3243;50.958;7.012;2023-04-03T21:54:18;3.90;99.90
6421;DHT22;3243;50.958;7.012;2023-04-03T21:59:14;3.80;99.90
6421;DHT22;3243;50.958;7.012;2023-04-03T22:01:42;3.80;99.90
6421;DHT22;3243;50.958;7.012;2023-04-03T22:06:37;3.70;99.90
6421;DHT22;3243;50.958;7.012;2023-04-03T22:09:04;3.60;99.90
6421;DHT22;3243;50.958;7.012;2023-04-03T22:11:30;3.60;99.90
6421;DHT22;3243;50.958;7.012;2023-04-03T22:28:44;3.50;99.90
6421;DHT22;3243;50.958;7.012;2023-04-03T22:31:12;3.50;99.90
6421;DHT22;3243;50.958;7.012;2023-04-03T22:33:41;3.50;99.90
6421;DHT22;3243;50.958;7.012;2023-04-03T22:36:09;3.40;99.90
6421;DHT22;3243;50.958;7.012;2023-04-03T22:38:38;3.40;99.90
6421;DHT22;3243;50.958;7.012;2023-04-03T22:41:06;3.30;99.90
6421;DHT22;3243;50.958;7.012;2023-04-03T22:43:35;3.30;99.90
6421;DHT22;3243;50.958;7.012;2023-04-03T22:46:04;3.20;99.90
6421;DHT22;3243;50.958;7.012;2023-04-03T22:50:59;3.00;99.90
6421;DHT22;3243;50.958;7.012;2023-04-03T22:53:27;3.20;99.90
6421;DHT22;3243;50.958;7.012;2023-04-03T22:55:58;3.00;99.90
6421;DHT22;3243;50.958;7.012;2023-04-03T22:58:26;3.00;99.90
6421;DHT22;3243;50.958;7.012;2023-04-03T23:00:53;3.00;99.90
6421;DHT22;3243;50.958;7.012;2023-04-03T23:03:21;2.90;99.90
6421;DHT22;3243;50.958;7.012;2023-04-03T23:05:52;2.80;99.90
6421;DHT22;3243;50.958;7.012;2023-04-03T23:13:13;2.60;99.90
6421;DHT22;3243;50.958;7.012;2023-04-03T23:18:08;2.50;99.90
6421;DHT22;3243;50.958;7.012;2023-04-03T23:20:35;2.50;99.90
6421;DHT22;3243;50.958;7.012;2023-04-03T23:30:23;2.50;99.90
6421;DHT22;3243;50.958;7.012;2023-04-03T23:35:17;2.50;99.90
6421;DHT22;3243;50.958;7.012;2023-04-03T23:37:44;2.50;99.90
6421;DHT22;3243;50.958;7.012;2023-04-03T23:40:11;2.50;99.90